メキシコシティ の空港の天気 - METARとTAF

メキシコ・シティ国際空港 ( MMMX / MEX ) - メキシコ メキシコシティ
飛行場実況気象(Metar)
観測時間08/06 16:48 CDT (08/06 21:48 UTC)
風向・風速北 6m/s
視程10km以上
天気現象
少しの雲 雲底高度 760m
全天の8割程度の雲 雲底高度 910m
気温25℃
湿度36%
気圧1023hPa
METARMMMX 062148Z 36012KT 8SM FEW025CB BKN030 25/09 A3022 NOSIG RMK 8/900 HZY DSNT PCPN N-NNE
過去の天気等 Google飛行場航空写真 Wunderground天気予報

過去48時間のMETAR

飛行場予報(TAF)
発表時間: 8/06 11:26 CDT (8/06 16:26 UTC)
予報対象時間: 6日13時 CDT ~ 7日19時 CDT
風向・風速北北西 5m/s
視程10km以上
天気現象煙霧
全天の4割程度の雲 雲底高度 760m
6日16時 CDT ~ 6日17時 CDT に徐々に
全天の8割程度の雲 雲底高度 760m
6日18時 CDT ~ 6日22時 CDT に一時的に
視程8050m
天気現象雷雨
全天の8割程度の積乱雲 雲底高度 610m
6日22時 CDT から
風向・風速東北東 3m/s
視程10km以上
全天の4割程度の雲 雲底高度 610m
全天の8割程度の雲 雲底高度 2440m
全天の8割程度の雲 雲底高度 6710m
7日4時 CDT ~ 7日5時 CDT に徐々に
視程10km以上
天気現象煙霧
7日6時 CDT ~ 7日9時 CDT に一時的に
視程8050m
天気現象もや 煙霧
全天の8割程度の雲 雲底高度 610m
7日12時 CDT から
風向・風速東北東 4m/s
視程10km以上
全天の4割程度の雲 雲底高度 610m
全天の8割程度の雲 雲底高度 6100m
TAF MMMX 061626Z 0618/0724 34010KT 6SM HZ SCT025 TX26/0621Z TN15/0712Z
BECMG 0621/0622 BKN025
TEMPO 0623/0703 5SM TSRA BKN020CB
FM070300 06006KT P6SM SCT020 BKN080 BKN220
BECMG 0709/0710 6SM HZ
TEMPO 0711/0714 5SM BR HZ BKN020
FM071700 06008KT P6SM SCT020 BKN200